Time;durP1;ratioP1;P1;durP2;ratioP2;P2;SDS_P1;SDS_P2;PMS_P1;PMS_P2;Temp;Humidity;BMP_temperature;BMP_pressure;BME280_temperature;BME280_humidity;BME280_pressure;Samples;Min_cycle;Max_cycle;Signal;HPM_P1;HPM_P2
2022/11/27 00:01:38;;;;;;;;;;;;;;;;;;5017374;28;5037;-63
2022/11/27 00:04:04;;;;;;;;;;;;;;;;;;5005260;28;3268;-62
2022/11/27 00:06:29;;;;;;;;;;;;;;;;;;5014435;28;4795;-62
2022/11/27 00:08:55;;;;;;;;;;;;;;;;;;5017932;28;4403;-64
2022/11/27 00:11:21;;;;;;;;;;;;;;;;;;5013397;28;5047;-64
2022/11/27 00:13:46;;;;;;;;;;;;;;;;;;5020990;28;5101;-62
2022/11/27 00:16:12;;;;;;;;;;;;;;;;;;5024614;28;3382;-63
2022/11/27 00:18:37;;;;;;;;;;;;;;;;;;5024331;28;5162;-63
2022/11/27 00:21:07;;;;;;;;;;;;;;;;;;5018040;28;5081;-62
2022/11/27 00:23:32;;;;;;;;;;;;;;;;;;5027745;28;4483;-63
2022/11/27 00:25:58;;;;;;;;;;;;;;;;;;5027566;28;4893;-63
2022/11/27 00:28:23;;;;;;;;;;;;;;;;;;5018078;28;4507;-65
2022/11/27 00:30:48;;;;;;;;;;;;;;;;;;5024566;28;3533;-63
2022/11/27 00:33:13;;;;;;;;;;;;;;;;;;5033170;28;5145;-63
2022/11/27 00:35:39;;;;;;;;;;;;;;;;;;5022018;28;5115;-63
2022/11/27 00:38:04;;;;;;;;;;;;;;;;;;5014031;28;5693;-63
2022/11/27 00:40:29;;;;;;;;;;;;;;;;;;5011533;28;5003;-63
2022/11/27 00:42:55;;;;;;;;;;;;;;;;;;5021934;28;3406;-64
2022/11/27 00:45:20;;;;;;;;;;;;;;;;;;5015927;28;4915;-64
2022/11/27 00:47:45;;;;;;;;;;;;;;;;;;5020745;28;4727;-66
2022/11/27 00:50:10;;;;;;;;;;;;;;;;;;5019024;28;5059;-65
2022/11/27 00:52:36;;;;;;;;;;;;;;;;;;5027361;28;4664;-63
2022/11/27 00:55:01;;;;;;;;;;;;;;;;;;5021641;28;3416;-62
2022/11/27 00:57:26;;;;;;;;;;;;;;;;;;5021355;28;5003;-62
2022/11/27 00:59:51;;;;;;;;;;;;;;;;;;5037394;28;4986;-63
2022/11/27 01:02:17;;;;;;;;;;;;;;;;;;5028672;28;4501;-63
2022/11/27 01:04:45;;;;;;;;;;;;;;;;;;5028184;28;4984;-63
2022/11/27 01:07:10;;;;;;;;;;;;;;;;;;5028681;28;1902;-64
2022/11/27 01:09:36;;;;;;;;;;;;;;;;;;5025982;28;5147;-63
2022/11/27 01:12:01;;;;;;;;;;;;;;;;;;5027604;28;5008;-62
2022/11/27 01:14:26;;;;;;;;;;;;;;;;;;5026071;28;5026;-63
2022/11/27 01:16:51;;;;;;;;;;;;;;;;;;5019454;28;5141;-64
2022/11/27 01:19:18;;;;;;;;;;;;;;;;;;5023892;28;3482;-62
2022/11/27 01:21:43;;;;;;;;;;;;;;;;;;5026665;28;4414;-63
2022/11/27 01:24:08;;;;;;;;;;;;;;;;;;5023731;28;4677;-64
2022/11/27 01:26:34;;;;;;;;;;;;;;;;;;5021906;28;5194;-63
2022/11/27 01:28:59;;;;;;;;;;;;;;;;;;5014068;28;5109;-63
2022/11/27 01:31:25;;;;;;;;;;;;;;;;;;5026810;28;4480;-63
2022/11/27 01:33:55;;;;;;;;;;;;;;;;;;5023964;28;3316;-63
2022/11/27 01:36:21;;;;;;;;;;;;;;;;;;5024569;28;5172;-63
2022/11/27 01:38:46;;;;;;;;;;;;;;;;;;5027297;28;5155;-63
2022/11/27 01:41:21;;;;;;;;;;;;;;;;;;5025077;28;5526;-63
2022/11/27 01:43:51;;;;;;;;;;;;;;;;;;5027988;28;4766;-64
2022/11/27 01:46:22;;;;;;;;;;;;;;;;;;5027690;28;1910;-63
2022/11/27 01:48:47;;;;;;;;;;;;;;;;;;5021938;28;4539;-63
2022/11/27 01:51:13;;;;;;;;;;;;;;;;;;5026072;28;4747;-63
2022/11/27 01:53:38;;;;;;;;;;;;;;;;;;5019596;28;5158;-63
2022/11/27 01:56:04;;;;;;;;;;;;;;;;;;5025912;28;4444;-63
2022/11/27 01:58:29;;;;;;;;;;;;;;;;;;5018530;28;5487;-62
2022/11/27 02:00:55;;;;;;;;;;;;;;;;;;5024250;28;3324;-63
2022/11/27 02:03:20;;;;;;;;;;;;;;;;;;5027880;28;5468;-63
2022/11/27 02:05:45;;;;;;;;;;;;;;;;;;5027045;28;4912;-63
2022/11/27 02:08:12;;;;;;;;;;;;;;;;;;5025138;28;4973;-63
2022/11/27 02:10:41;;;;;;;;;;;;;;;;;;5025574;28;5075;-63
2022/11/27 02:13:08;;;;;;;;;;;;;;;;;;5025337;28;3302;-64
2022/11/27 02:15:52;;;;;;;;;;;;;;;;;;5021131;28;4975;-62
2022/11/27 02:18:21;;;;;;;;;;;;;;;;;;5027590;28;4564;-63
2022/11/27 02:20:58;;;;;;;;;;;;;;;;;;5019756;28;5182;-63
2022/11/27 02:23:44;;;;;;;;;;;;;;;;;;5025051;28;4948;-63
2022/11/27 02:26:09;;;;;;;;;;;;;;;;;;5024306;28;4623;-64
2022/11/27 02:28:53;;;;;;;;;;;;;;;;;;5023551;28;5036;-64
2022/11/27 02:31:23;;;;;;;;;;;;;;;;;;5026424;28;3418;-63
2022/11/27 02:33:49;;;;;;;;;;;;;;;;;;5024703;28;4970;-64
2022/11/27 02:36:17;;;;;;;;;;;;;;;;;;5021660;28;4962;-65
2022/11/27 02:38:47;;;;;;;;;;;;;;;;;;5038866;28;4657;-64
2022/11/27 02:41:39;;;;;;;;;;;;;;;;;;5034738;28;4978;-63
2022/11/27 02:44:04;;;;;;;;;;;;;;;;;;5013915;28;5024;-63
2022/11/27 02:46:29;;;;;;;;;;;;;;;;;;5014274;28;4962;-63
2022/11/27 02:48:55;;;;;;;;;;;;;;;;;;5017664;28;3572;-63
2022/11/27 02:51:25;;;;;;;;;;;;;;;;;;5007180;28;5363;-64
2022/11/27 02:53:51;;;;;;;;;;;;;;;;;;5008260;28;4896;-63
2022/11/27 02:56:16;;;;;;;;;;;;;;;;;;5011996;28;5240;-63
2022/11/27 02:58:42;;;;;;;;;;;;;;;;;;5024461;28;4850;-63
2022/11/27 03:01:07;;;;;;;;;;;;;;;;;;5027546;28;3333;-64
2022/11/27 03:03:36;;;;;;;;;;;;;;;;;;5041499;28;5003;-64
2022/11/27 03:06:03;;;;;;;;;;;;;;;;;;5019767;28;4568;-63
2022/11/27 03:08:34;;;;;;;;;;;;;;;;;;5028240;28;5017;-63
2022/11/27 03:11:02;;;;;;;;;;;;;;;;;;5005001;28;5640;-63
2022/11/27 03:13:27;;;;;;;;;;;;;;;;;;5000219;28;5141;-64
2022/11/27 03:15:59;;;;;;;;;;;;;;;;;;5009077;28;3244;-64
2022/11/27 03:18:47;;;;;;;;;;;;;;;;;;5007701;28;5223;-64
2022/11/27 03:21:33;;;;;;;;;;;;;;;;;;5004584;28;5073;-62
2022/11/27 03:23:58;;;;;;;;;;;;;;;;;;5012302;28;5340;-63
2022/11/27 03:26:24;;;;;;;;;;;;;;;;;;5018296;28;4609;-63
2022/11/27 03:28:49;;;;;;;;;;;;;;;;;;5020768;28;5154;-64
2022/11/27 03:31:14;;;;;;;;;;;;;;;;;;5025542;28;3516;-64
2022/11/27 03:33:39;;;;;;;;;;;;;;;;;;5023714;28;4457;-63
2022/11/27 03:36:10;;;;;;;;;;;;;;;;;;5038610;28;5045;-63
2022/11/27 03:38:35;;;;;;;;;;;;;;;;;;5024740;28;4517;-63
2022/11/27 03:41:05;;;;;;;;;;;;;;;;;;5024824;28;5084;-63
2022/11/27 03:43:32;;;;;;;;;;;;;;;;;;5014299;28;5142;-64
2022/11/27 03:46:05;;;;;;;;;;;;;;;;;;5025677;28;1541;-63
2022/11/27 03:48:42;;;;;;;;;;;;;;;;;;5023755;28;5076;-63
2022/11/27 03:51:19;;;;;;;;;;;;;;;;;;5036554;28;5162;-65
2022/11/27 03:53:47;;;;;;;;;;;;;;;;;;5023245;28;5178;-62
2022/11/27 03:56:31;;;;;;;;;;;;;;;;;;5025671;28;5158;-63
2022/11/27 03:59:22;;;;;;;;;;;;;;;;;;5020566;28;5020;-63
2022/11/27 04:01:48;;;;;;;;;;;;;;;;;;5020120;28;5504;-62
2022/11/27 04:04:13;;;;;;;;;;;;;;;;;;5025400;28;3442;-63
2022/11/27 04:06:38;;;;;;;;;;;;;;;;;;5025535;28;4981;-63
2022/11/27 04:09:04;;;;;;;;;;;;;;;;;;5027869;28;4444;-63
2022/11/27 04:11:29;;;;;;;;;;;;;;;;;;5029029;28;4831;-61
2022/11/27 04:13:54;;;;;;;;;;;;;;;;;;5028209;28;4999;-63
2022/11/27 04:16:20;;;;;;;;;;;;;;;;;;5030967;28;4944;-64
2022/11/27 04:18:45;;;;;;;;;;;;;;;;;;5029839;28;3318;-63
2022/11/27 04:21:13;;;;;;;;;;;;;;;;;;5029272;28;4431;-63
2022/11/27 04:23:39;;;;;;;;;;;;;;;;;;5029304;28;5061;-62
2022/11/27 04:26:04;;;;;;;;;;;;;;;;;;5028818;28;4923;-62
2022/11/27 04:28:30;;;;;;;;;;;;;;;;;;5018810;28;4698;-62
2022/11/27 04:30:55;;;;;;;;;;;;;;;;;;5022524;28;2417;-63
2022/11/27 04:33:20;;;;;;;;;;;;;;;;;;5027577;28;5048;-62
2022/11/27 04:35:46;;;;;;;;;;;;;;;;;;5027519;28;4487;-62
2022/11/27 04:38:11;;;;;;;;;;;;;;;;;;5028989;28;4846;-63
2022/11/27 04:40:36;;;;;;;;;;;;;;;;;;5028483;28;5311;-61
2022/11/27 04:43:01;;;;;;;;;;;;;;;;;;5030832;28;1118;-61
2022/11/27 04:45:27;;;;;;;;;;;;;;;;;;5024528;28;5069;-62
2022/11/27 04:47:52;;;;;;;;;;;;;;;;;;5028890;28;4950;-64
2022/11/27 04:50:17;;;;;;;;;;;;;;;;;;5026267;28;5030;-63
2022/11/27 04:52:42;;;;;;;;;;;;;;;;;;5028739;28;5093;-63
2022/11/27 04:55:08;;;;;;;;;;;;;;;;;;5010986;28;1686;-63
2022/11/27 04:57:33;;;;;;;;;;;;;;;;;;5017541;28;4595;-63
2022/11/27 04:59:59;;;;;;;;;;;;;;;;;;5024255;28;4489;-63
2022/11/27 05:02:24;;;;;;;;;;;;;;;;;;5027413;28;4437;-62
2022/11/27 05:04:49;;;;;;;;;;;;;;;;;;5015112;28;5215;-63
2022/11/27 05:07:14;;;;;;;;;;;;;;;;;;5024107;28;3253;-62
2022/11/27 05:09:39;;;;;;;;;;;;;;;;;;5021804;28;4930;-62
2022/11/27 05:12:05;;;;;;;;;;;;;;;;;;5024357;28;4994;-62
2022/11/27 05:14:30;;;;;;;;;;;;;;;;;;5023294;28;5008;-63
2022/11/27 05:16:56;;;;;;;;;;;;;;;;;;5020817;28;5015;-63
2022/11/27 05:19:23;;;;;;;;;;;;;;;;;;5024640;28;5063;-65
2022/11/27 05:21:48;;;;;;;;;;;;;;;;;;5028612;28;3387;-62
2022/11/27 05:24:13;;;;;;;;;;;;;;;;;;5022290;28;5145;-62
2022/11/27 05:26:39;;;;;;;;;;;;;;;;;;5023849;28;5322;-64
2022/11/27 05:29:04;;;;;;;;;;;;;;;;;;5021352;28;5191;-62
2022/11/27 05:31:30;;;;;;;;;;;;;;;;;;5023905;28;5065;-63
2022/11/27 05:33:55;;;;;;;;;;;;;;;;;;5023322;28;3335;-62
2022/11/27 05:36:20;;;;;;;;;;;;;;;;;;5025527;28;5032;-64
2022/11/27 05:38:45;;;;;;;;;;;;;;;;;;5023651;28;5015;-62
2022/11/27 05:41:11;;;;;;;;;;;;;;;;;;5027958;28;4975;-63
2022/11/27 05:43:36;;;;;;;;;;;;;;;;;;5026710;28;4842;-63
2022/11/27 05:46:05;;;;;;;;;;;;;;;;;;5020978;28;3415;-62
2022/11/27 05:48:30;;;;;;;;;;;;;;;;;;5025088;28;5011;-63
2022/11/27 05:50:56;;;;;;;;;;;;;;;;;;5023148;28;5169;-61
2022/11/27 05:53:21;;;;;;;;;;;;;;;;;;5025926;28;5059;-63
2022/11/27 05:55:46;;;;;;;;;;;;;;;;;;5019267;28;5150;-62
2022/11/27 05:58:12;;;;;;;;;;;;;;;;;;5018389;28;3431;-62
2022/11/27 06:00:37;;;;;;;;;;;;;;;;;;5023137;28;4809;-62
2022/11/27 06:03:02;;;;;;;;;;;;;;;;;;5019270;28;5149;-62
2022/11/27 06:05:27;;;;;;;;;;;;;;;;;;5021108;28;5604;-61
2022/11/27 06:07:53;;;;;;;;;;;;;;;;;;5012896;28;5482;-62
2022/11/27 06:10:18;;;;;;;;;;;;;;;;;;5032846;28;3315;-61
2022/11/27 06:12:44;;;;;;;;;;;;;;;;;;5025923;28;5029;-61
2022/11/27 06:15:09;;;;;;;;;;;;;;;;;;5023856;28;5034;-62
2022/11/27 06:17:34;;;;;;;;;;;;;;;;;;5017311;28;4992;-61
2022/11/27 06:19:59;;;;;;;;;;;;;;;;;;5018294;28;5130;-62
2022/11/27 06:22:25;;;;;;;;;;;;;;;;;;5018395;28;4984;-62
2022/11/27 06:24:50;;;;;;;;;;;;;;;;;;5021493;28;3491;-62
2022/11/27 06:27:15;;;;;;;;;;;;;;;;;;5018828;28;4766;-62
2022/11/27 06:29:40;;;;;;;;;;;;;;;;;;5025064;28;4541;-62
2022/11/27 06:32:06;;;;;;;;;;;;;;;;;;5020499;28;4953;-62
2022/11/27 06:34:31;;;;;;;;;;;;;;;;;;5023993;28;4994;-61
2022/11/27 06:36:56;;;;;;;;;;;;;;;;;;5025291;28;3220;-61
2022/11/27 06:39:21;;;;;;;;;;;;;;;;;;5020699;28;5011;-65
2022/11/27 06:41:47;;;;;;;;;;;;;;;;;;5020185;28;4482;-62
2022/11/27 06:44:12;;;;;;;;;;;;;;;;;;5021045;28;4617;-63
2022/11/27 06:46:37;;;;;;;;;;;;;;;;;;5020416;28;4769;-62
2022/11/27 06:49:02;;;;;;;;;;;;;;;;;;5020590;28;3351;-63
2022/11/27 06:51:29;;;;;;;;;;;;;;;;;;5025719;28;5127;-63
2022/11/27 06:53:54;;;;;;;;;;;;;;;;;;5038536;28;5035;-63
2022/11/27 06:56:23;;;;;;;;;;;;;;;;;;5024258;28;4669;-62
2022/11/27 06:58:52;;;;;;;;;;;;;;;;;;5022938;28;4907;-63
2022/11/27 07:01:17;;;;;;;;;;;;;;;;;;5010840;28;3512;-64
2022/11/27 07:03:42;;;;;;;;;;;;;;;;;;5011355;28;4710;-63
2022/11/27 07:06:09;;;;;;;;;;;;;;;;;;5018357;28;6023;-62
2022/11/27 07:08:34;;;;;;;;;;;;;;;;;;5018366;28;5103;-63
2022/11/27 07:11:06;;;;;;;;;;;;;;;;;;5022197;28;5123;-62
2022/11/27 07:13:31;;;;;;;;;;;;;;;;;;5035514;28;5068;-64
2022/11/27 07:16:00;;;;;;;;;;;;;;;;;;5006828;28;3587;-63
2022/11/27 07:18:25;;;;;;;;;;;;;;;;;;5018291;28;5094;-64
2022/11/27 07:20:51;;;;;;;;;;;;;;;;;;5028047;28;4834;-63
2022/11/27 07:23:16;;;;;;;;;;;;;;;;;;5026016;28;5180;-60
2022/11/27 07:25:41;;;;;;;;;;;;;;;;;;5020302;28;5093;-62
2022/11/27 07:28:07;;;;;;;;;;;;;;;;;;5016176;28;2980;-63
2022/11/27 07:30:32;;;;;;;;;;;;;;;;;;5013979;28;5089;-62
2022/11/27 07:32:57;;;;;;;;;;;;;;;;;;5011427;28;4403;-63
2022/11/27 07:35:22;;;;;;;;;;;;;;;;;;5014051;28;5174;-63
2022/11/27 07:37:48;;;;;;;;;;;;;;;;;;5025531;28;5068;-63
2022/11/27 07:40:13;;;;;;;;;;;;;;;;;;5018053;28;3271;-63
2022/11/27 07:42:38;;;;;;;;;;;;;;;;;;5024736;28;4992;-62
2022/11/27 07:45:04;;;;;;;;;;;;;;;;;;5021763;28;4579;-63
2022/11/27 07:47:29;;;;;;;;;;;;;;;;;;5019980;28;5023;-63
2022/11/27 07:49:57;;;;;;;;;;;;;;;;;;5019355;28;4820;-63
2022/11/27 07:52:22;;;;;;;;;;;;;;;;;;5031105;28;4943;-63
2022/11/27 07:54:47;;;;;;;;;;;;;;;;;;5019985;28;3235;-63
2022/11/27 07:57:13;;;;;;;;;;;;;;;;;;5010711;28;5030;-62
2022/11/27 07:59:38;;;;;;;;;;;;;;;;;;5015014;28;5147;-63
2022/11/27 08:02:03;;;;;;;;;;;;;;;;;;5026790;28;5187;-62
2022/11/27 08:04:28;;;;;;;;;;;;;;;;;;5030096;28;5001;-62
2022/11/27 08:06:54;;;;;;;;;;;;;;;;;;5022169;28;3339;-61
2022/11/27 08:09:20;;;;;;;;;;;;;;;;;;5025000;28;4760;-61
2022/11/27 08:11:45;;;;;;;;;;;;;;;;;;5015959;28;5028;-65
2022/11/27 08:14:10;;;;;;;;;;;;;;;;;;5013783;28;5246;-61
2022/11/27 08:16:35;;;;;;;;;;;;;;;;;;5039155;28;5083;-60
2022/11/27 08:19:01;;;;;;;;;;;;;;;;;;5011495;28;2166;-61
2022/11/27 08:21:26;;;;;;;;;;;;;;;;;;5027904;28;4980;-61
2022/11/27 08:23:51;;;;;;;;;;;;;;;;;;5010889;28;4530;-61
2022/11/27 08:26:17;;;;;;;;;;;;;;;;;;5000817;28;5054;-61
2022/11/27 08:28:42;;;;;;;;;;;;;;;;;;5002017;28;4543;-61
2022/11/27 08:31:08;;;;;;;;;;;;;;;;;;5005019;28;3488;-61
2022/11/27 08:33:34;;;;;;;;;;;;;;;;;;5015789;28;5249;-61
2022/11/27 08:35:59;;;;;;;;;;;;;;;;;;5012392;28;5057;-65
2022/11/27 08:38:24;;;;;;;;;;;;;;;;;;5016826;28;4526;-65
2022/11/27 08:41:08;;;;;;;;;;;;;;;;;;5017444;28;5275;-66
2022/11/27 08:43:33;;;;;;;;;;;;;;;;;;5020244;28;4982;-65
2022/11/27 08:45:58;;;;;;;;;;;;;;;;;;5013655;28;3306;-66
2022/11/27 08:48:24;;;;;;;;;;;;;;;;;;5022801;28;5017;-66
2022/11/27 08:50:49;;;;;;;;;;;;;;;;;;5019680;28;4700;-65
2022/11/27 08:53:15;;;;;;;;;;;;;;;;;;5017863;28;5147;-66
2022/11/27 08:55:40;;;;;;;;;;;;;;;;;;5019625;28;5030;-66
2022/11/27 08:58:05;;;;;;;;;;;;;;;;;;5016583;28;3353;-66
2022/11/27 09:00:31;;;;;;;;;;;;;;;;;;5019604;28;4943;-66
2022/11/27 09:03:00;;;;;;;;;;;;;;;;;;5019766;28;4555;-70
2022/11/27 09:05:25;;;;;;;;;;;;;;;;;;5010897;28;4530;-67
2022/11/27 09:07:51;;;;;;;;;;;;;;;;;;5016875;28;5168;-67
2022/11/27 09:10:16;;;;;;;;;;;;;;;;;;5011997;28;3395;-72
2022/11/27 09:12:43;;;;;;;;;;;;;;;;;;5017205;28;5647;-64
2022/11/27 09:15:09;;;;;;;;;;;;;;;;;;5022391;28;4890;-69
2022/11/27 09:17:34;;;;;;;;;;;;;;;;;;5019910;28;5121;-70
2022/11/27 09:19:59;;;;;;;;;;;;;;;;;;5019680;28;4535;-67
2022/11/27 09:22:24;;;;;;;;;;;;;;;;;;5024749;28;4473;-68
2022/11/27 09:24:50;;;;;;;;;;;;;;;;;;5026642;28;3393;-68
2022/11/27 09:27:15;;;;;;;;;;;;;;;;;;5008102;28;5021;-68
2022/11/27 09:29:40;;;;;;;;;;;;;;;;;;5011095;28;5295;-62
2022/11/27 09:32:05;;;;;;;;;;;;;;;;;;5027630;28;5088;-68
2022/11/27 09:34:30;;;;;;;;;;;;;;;;;;5020684;28;4681;-68
2022/11/27 09:36:56;;;;;;;;;;;;;;;;;;5016867;28;3317;-66
2022/11/27 09:39:21;;;;;;;;;;;;;;;;;;5018911;28;5241;-68
2022/11/27 09:41:50;;;;;;;;;;;;;;;;;;5017904;28;5005;-67
2022/11/27 09:44:18;;;;;;;;;;;;;;;;;;5008105;28;5642;-66
2022/11/27 09:46:44;;;;;;;;;;;;;;;;;;5032207;28;4502;-68
2022/11/27 09:49:35;;;;;;;;;;;;;;;;;;5029005;28;1026;-68
2022/11/27 09:52:01;;;;;;;;;;;;;;;;;;5016921;28;4988;-67
2022/11/27 09:54:34;;;;;;;;;;;;;;;;;;5025655;28;5076;-67
2022/11/27 09:56:59;;;;;;;;;;;;;;;;;;5042884;28;5090;-68
2022/11/27 09:59:28;;;;;;;;;;;;;;;;;;5026665;28;5032;-68
2022/11/27 10:01:53;;;;;;;;;;;;;;;;;;5021635;28;5216;-68
2022/11/27 10:04:18;;;;;;;;;;;;;;;;;;5004663;28;3320;-67
2022/11/27 10:06:44;;;;;;;;;;;;;;;;;;5007933;28;4913;-67
2022/11/27 10:09:11;;;;;;;;;;;;;;;;;;5019192;28;4871;-68
2022/11/27 10:11:40;;;;;;;;;;;;;;;;;;5008779;28;5001;-67
2022/11/27 10:14:08;;;;;;;;;;;;;;;;;;5008305;28;5026;-67
2022/11/27 10:16:33;;;;;;;;;;;;;;;;;;5020261;28;5056;-67
2022/11/27 10:19:05;;;;;;;;;;;;;;;;;;5022070;28;3398;-67
2022/11/27 10:21:39;;;;;;;;;;;;;;;;;;5013407;28;4526;-65
2022/11/27 10:24:06;;;;;;;;;;;;;;;;;;5018867;28;5054;-68
2022/11/27 10:26:37;;;;;;;;;;;;;;;;;;5029492;28;5051;-65
2022/11/27 10:29:32;;;;;;;;;;;;;;;;;;5016632;28;4467;-65
2022/11/27 10:32:32;;;;;;;;;;;;;;;;;;4999869;28;5221;-66
2022/11/27 10:34:58;;;;;;;;;;;;;;;;;;4950285;28;4746;-67
2022/11/27 10:37:32;;;;;;;;;;;;;;;;;;5008215;28;5036;-67
2022/11/27 10:39:59;;;;;;;;;;;;;;;;;;5022947;28;3616;-68
2022/11/27 10:42:39;;;;;;;;;;;;;;;;;;5022837;28;5034;-67
2022/11/27 10:45:20;;;;;;;;;;;;;;;;;;5024537;28;4995;-68
2022/11/27 10:47:46;;;;;;;;;;;;;;;;;;5024593;28;4567;-68
2022/11/27 10:50:15;;;;;;;;;;;;;;;;;;5030795;28;5139;-68
2022/11/27 10:52:54;;;;;;;;;;;;;;;;;;5019333;28;5066;-67
2022/11/27 10:55:38;;;;;;;;;;;;;;;;;;5028855;28;3108;-69
2022/11/27 10:58:13;;;;;;;;;;;;;;;;;;5019520;28;4914;-67
2022/11/27 11:00:38;;;;;;;;;;;;;;;;;;5006831;28;4958;-67
2022/11/27 11:03:04;;;;;;;;;;;;;;;;;;5025060;28;4674;-67
2022/11/27 11:05:29;;;;;;;;;;;;;;;;;;5029504;28;4916;-67
2022/11/27 11:07:55;;;;;;;;;;;;;;;;;;5029723;28;5079;-68
2022/11/27 11:10:29;;;;;;;;;;;;;;;;;;5031465;28;5070;-67
2022/11/27 11:13:03;;;;;;;;;;;;;;;;;;5030478;28;3125;-66
2022/11/27 11:15:29;;;;;;;;;;;;;;;;;;5021251;28;5092;-67
2022/11/27 11:17:55;;;;;;;;;;;;;;;;;;5027656;28;4909;-68
2022/11/27 11:20:21;;;;;;;;;;;;;;;;;;5018911;28;5196;-68
2022/11/27 11:22:46;;;;;;;;;;;;;;;;;;5006943;28;5052;-67
2022/11/27 11:25:18;;;;;;;;;;;;;;;;;;4999929;28;3331;-68
2022/11/27 11:27:43;;;;;;;;;;;;;;;;;;5009020;28;4444;-68
2022/11/27 11:30:21;;;;;;;;;;;;;;;;;;5018203;28;4918;-68
2022/11/27 11:32:48;;;;;;;;;;;;;;;;;;5037126;28;4953;-69
2022/11/27 11:35:33;;;;;;;;;;;;;;;;;;5025610;28;4644;-68
2022/11/27 11:38:00;;;;;;;;;;;;;;;;;;5027561;28;4975;-69
2022/11/27 11:40:26;;;;;;;;;;;;;;;;;;5028218;28;5059;-69
2022/11/27 11:42:56;;;;;;;;;;;;;;;;;;5031053;28;1836;-69
2022/11/27 11:45:21;;;;;;;;;;;;;;;;;;5020793;28;4982;-68
2022/11/27 11:47:48;;;;;;;;;;;;;;;;;;5028720;28;4438;-67
2022/11/27 11:50:13;;;;;;;;;;;;;;;;;;5030811;28;5886;-69
2022/11/27 11:52:48;;;;;;;;;;;;;;;;;;5041016;28;4857;-69
2022/11/27 11:55:16;;;;;;;;;;;;;;;;;;5029562;28;2159;-69
2022/11/27 11:57:50;;;;;;;;;;;;;;;;;;5025091;28;4649;-69
2022/11/27 12:00:16;;;;;;;;;;;;;;;;;;5029395;28;4639;-69
2022/11/27 12:02:57;;;;;;;;;;;;;;;;;;5025889;28;4526;-69
2022/11/27 12:05:22;;;;;;;;;;;;;;;;;;5013580;28;5160;-69
2022/11/27 12:07:51;;;;;;;;;;;;;;;;;;5012778;28;5111;-68
2022/11/27 12:10:17;;;;;;;;;;;;;;;;;;5011038;28;3221;-70
2022/11/27 12:12:45;;;;;;;;;;;;;;;;;;5023616;28;4944;-69
2022/11/27 12:15:21;;;;;;;;;;;;;;;;;;5019855;28;5170;-68
2022/11/27 12:17:46;;;;;;;;;;;;;;;;;;5030180;28;4628;-69
2022/11/27 12:20:16;;;;;;;;;;;;;;;;;;5027925;28;4972;-69
2022/11/27 12:23:00;;;;;;;;;;;;;;;;;;5028659;28;5120;-69
2022/11/27 12:25:25;;;;;;;;;;;;;;;;;;5030949;28;1273;-68
2022/11/27 12:27:53;;;;;;;;;;;;;;;;;;5022828;28;5126;-68
2022/11/27 12:30:19;;;;;;;;;;;;;;;;;;5010098;28;5099;-69
2022/11/27 12:32:51;;;;;;;;;;;;;;;;;;5026267;28;5052;-69
2022/11/27 12:35:25;;;;;;;;;;;;;;;;;;5011319;28;5140;-64
2022/11/27 12:37:50;;;;;;;;;;;;;;;;;;5001492;28;4981;-70
2022/11/27 12:40:15;;;;;;;;;;;;;;;;;;5018008;28;3333;-68
2022/11/27 12:42:40;;;;;;;;;;;;;;;;;;5022209;28;5194;-69
2022/11/27 12:45:22;;;;;;;;;;;;;;;;;;5012120;28;5233;-66
2022/11/27 12:48:06;;;;;;;;;;;;;;;;;;5017050;28;5034;-68
2022/11/27 12:50:37;;;;;;;;;;;;;;;;;;5028921;28;5074;-67
2022/11/27 12:53:13;;;;;;;;;;;;;;;;;;5014681;28;5184;-67
2022/11/27 12:55:39;;;;;;;;;;;;;;;;;;5032257;28;4898;-67
2022/11/27 12:58:26;;;;;;;;;;;;;;;;;;5021217;28;3327;-69
2022/11/27 13:00:51;;;;;;;;;;;;;;;;;;5016558;28;5219;-66
2022/11/27 13:03:32;;;;;;;;;;;;;;;;;;5030434;28;5505;-67
2022/11/27 13:05:59;;;;;;;;;;;;;;;;;;5017647;28;4498;-66
2022/11/27 13:08:33;;;;;;;;;;;;;;;;;;5011032;28;4572;-68
2022/11/27 13:11:03;;;;;;;;;;;;;;;;;;5015467;28;4605;-66
2022/11/27 13:13:37;;;;;;;;;;;;;;;;;;5015103;28;3337;-65
2022/11/27 13:16:04;;;;;;;;;;;;;;;;;;5018110;28;5014;-61
2022/11/27 13:18:34;;;;;;;;;;;;;;;;;;5020966;28;4590;-61
2022/11/27 13:21:00;;;;;;;;;;;;;;;;;;5016316;28;4822;-59
2022/11/27 13:23:29;;;;;;;;;;;;;;;;;;5028989;28;4930;-59
2022/11/27 13:25:54;;;;;;;;;;;;;;;;;;5029300;28;5258;-59
2022/11/27 13:28:36;;;;;;;;;;;;;;;;;;5020457;28;1976;-58
2022/11/27 13:31:01;;;;;;;;;;;;;;;;;;5025301;28;5005;-58
2022/11/27 13:33:37;;;;;;;;;;;;;;;;;;5026016;28;4531;-61
2022/11/27 13:36:03;;;;;;;;;;;;;;;;;;5038552;28;5116;-60
2022/11/27 13:38:31;;;;;;;;;;;;;;;;;;5033217;28;4896;-58
2022/11/27 13:40:57;;;;;;;;;;;;;;;;;;5011487;28;4928;-60
2022/11/27 13:43:33;;;;;;;;;;;;;;;;;;5027039;28;3320;-61
2022/11/27 13:46:00;;;;;;;;;;;;;;;;;;5021742;28;5133;-60
2022/11/27 13:48:25;;;;;;;;;;;;;;;;;;5022443;28;4524;-60
2022/11/27 13:50:50;;;;;;;;;;;;;;;;;;5043550;28;5907;-60
2022/11/27 13:53:15;;;;;;;;;;;;;;;;;;5012896;28;4971;-60
2022/11/27 13:55:50;;;;;;;;;;;;;;;;;;5009686;28;5062;-59
2022/11/27 13:58:25;;;;;;;;;;;;;;;;;;5020986;28;3536;-60
2022/11/27 14:00:51;;;;;;;;;;;;;;;;;;5038335;28;4928;-60
2022/11/27 14:03:23;;;;;;;;;;;;;;;;;;5031478;28;4924;-59
2022/11/27 14:05:48;;;;;;;;;;;;;;;;;;5019750;28;5064;-58
2022/11/27 14:08:39;;;;;;;;;;;;;;;;;;5033677;28;5046;-59
2022/11/27 14:11:06;;;;;;;;;;;;;;;;;;5013875;28;5198;-59
2022/11/27 14:13:36;;;;;;;;;;;;;;;;;;5023463;28;3553;-59
2022/11/27 14:16:01;;;;;;;;;;;;;;;;;;5016375;28;5180;-60
2022/11/27 14:18:27;;;;;;;;;;;;;;;;;;5033498;28;4682;-64
2022/11/27 14:20:54;;;;;;;;;;;;;;;;;;5005395;28;4721;-63
2022/11/27 14:23:45;;;;;;;;;;;;;;;;;;5006441;28;4913;-62
2022/11/27 14:26:11;;;;;;;;;;;;;;;;;;5020428;28;5145;-60
2022/11/27 14:28:36;;;;;;;;;;;;;;;;;;5014544;28;4670;-66
2022/11/27 14:31:01;;;;;;;;;;;;;;;;;;5037432;28;3663;-62
2022/11/27 14:33:28;;;;;;;;;;;;;;;;;;5019331;28;4539;-63
2022/11/27 14:35:54;;;;;;;;;;;;;;;;;;5013831;28;4980;-59
2022/11/27 14:38:19;;;;;;;;;;;;;;;;;;5017137;28;5302;-59
2022/11/27 14:40:45;;;;;;;;;;;;;;;;;;5014404;28;4585;-59
2022/11/27 14:43:17;;;;;;;;;;;;;;;;;;5022481;28;3463;-59
2022/11/27 14:45:46;;;;;;;;;;;;;;;;;;5022765;28;4988;-60
2022/11/27 14:48:14;;;;;;;;;;;;;;;;;;5026093;28;4993;-59
2022/11/27 14:50:40;;;;;;;;;;;;;;;;;;5039736;28;4623;-59
2022/11/27 14:53:05;;;;;;;;;;;;;;;;;;5019919;28;5229;-60
2022/11/27 14:55:30;;;;;;;;;;;;;;;;;;5022699;28;3518;-61
2022/11/27 14:57:55;;;;;;;;;;;;;;;;;;5031858;28;4562;-60
2022/11/27 15:00:26;;;;;;;;;;;;;;;;;;5034283;28;4595;-59
2022/11/27 15:02:51;;;;;;;;;;;;;;;;;;5007194;28;5086;-60
2022/11/27 15:05:17;;;;;;;;;;;;;;;;;;5007717;28;5132;-60
2022/11/27 15:07:43;;;;;;;;;;;;;;;;;;5023571;28;5082;-62
2022/11/27 15:10:16;;;;;;;;;;;;;;;;;;5039589;28;3404;-60
2022/11/27 15:12:44;;;;;;;;;;;;;;;;;;5022523;28;5340;-60
2022/11/27 15:15:26;;;;;;;;;;;;;;;;;;5016811;28;4707;-60
2022/11/27 15:17:58;;;;;;;;;;;;;;;;;;5031142;28;4497;-60
2022/11/27 15:20:39;;;;;;;;;;;;;;;;;;5008332;28;5015;-61
2022/11/27 15:23:11;;;;;;;;;;;;;;;;;;5023501;28;4525;-61
2022/11/27 15:25:38;;;;;;;;;;;;;;;;;;5021722;28;5424;-65
2022/11/27 15:28:23;;;;;;;;;;;;;;;;;;5006171;28;3723;-61
2022/11/27 15:30:49;;;;;;;;;;;;;;;;;;5005716;28;5047;-60
2022/11/27 15:33:27;;;;;;;;;;;;;;;;;;5014567;28;4876;-61
2022/11/27 15:35:53;;;;;;;;;;;;;;;;;;5019488;28;4707;-60
2022/11/27 15:38:18;;;;;;;;;;;;;;;;;;5037416;28;4708;-60
2022/11/27 15:40:44;;;;;;;;;;;;;;;;;;5030109;28;4709;-61
2022/11/27 15:43:09;;;;;;;;;;;;;;;;;;5032747;28;3260;-61
2022/11/27 15:45:34;;;;;;;;;;;;;;;;;;5030611;28;5082;-63
2022/11/27 15:48:00;;;;;;;;;;;;;;;;;;5028878;28;4856;-64
2022/11/27 15:50:25;;;;;;;;;;;;;;;;;;5029370;28;4699;-63
2022/11/27 15:52:51;;;;;;;;;;;;;;;;;;5025877;28;5012;-62
2022/11/27 15:55:16;;;;;;;;;;;;;;;;;;5028206;28;2090;-63
2022/11/27 15:57:41;;;;;;;;;;;;;;;;;;5031804;28;4680;-63
2022/11/27 16:00:08;;;;;;;;;;;;;;;;;;5014831;28;5238;-64
2022/11/27 16:02:34;;;;;;;;;;;;;;;;;;5018497;28;5160;-64
2022/11/27 16:04:59;;;;;;;;;;;;;;;;;;5016304;28;5050;-65
2022/11/27 16:07:24;;;;;;;;;;;;;;;;;;5020601;28;3447;-64
2022/11/27 16:09:49;;;;;;;;;;;;;;;;;;5023205;28;5018;-65
2022/11/27 16:12:15;;;;;;;;;;;;;;;;;;5022169;28;5107;-65
2022/11/27 16:14:40;;;;;;;;;;;;;;;;;;5019789;28;5037;-65
2022/11/27 16:17:05;;;;;;;;;;;;;;;;;;5025225;28;5200;-65
2022/11/27 16:19:31;;;;;;;;;;;;;;;;;;5024896;28;3585;-65
2022/11/27 16:21:56;;;;;;;;;;;;;;;;;;5021756;28;5056;-65
2022/11/27 16:24:21;;;;;;;;;;;;;;;;;;5014656;28;5017;-64
2022/11/27 16:26:47;;;;;;;;;;;;;;;;;;5019577;28;5560;-64
2022/11/27 16:29:12;;;;;;;;;;;;;;;;;;5017381;28;4803;-66
2022/11/27 16:31:37;;;;;;;;;;;;;;;;;;5016742;28;5210;-66
2022/11/27 16:34:04;;;;;;;;;;;;;;;;;;5020658;28;3410;-68
2022/11/27 16:36:29;;;;;;;;;;;;;;;;;;5018815;28;5264;-68
2022/11/27 16:38:55;;;;;;;;;;;;;;;;;;5016911;28;5040;-68
2022/11/27 16:41:20;;;;;;;;;;;;;;;;;;5018401;28;4468;-68
2022/11/27 16:43:46;;;;;;;;;;;;;;;;;;5022921;28;5273;-68
2022/11/27 16:46:12;;;;;;;;;;;;;;;;;;5018985;28;2016;-68
2022/11/27 16:48:38;;;;;;;;;;;;;;;;;;5032285;28;4446;-62
2022/11/27 16:51:07;;;;;;;;;;;;;;;;;;5019246;28;5229;-66
2022/11/27 16:53:34;;;;;;;;;;;;;;;;;;5038230;28;5062;-66
2022/11/27 16:55:59;;;;;;;;;;;;;;;;;;5029059;28;4709;-64
2022/11/27 16:58:24;;;;;;;;;;;;;;;;;;5020550;28;3339;-65
2022/11/27 17:00:50;;;;;;;;;;;;;;;;;;5018419;28;4975;-64
2022/11/27 17:03:15;;;;;;;;;;;;;;;;;;5024446;28;5214;-65
2022/11/27 17:05:40;;;;;;;;;;;;;;;;;;5024898;28;4818;-65
2022/11/27 17:08:06;;;;;;;;;;;;;;;;;;5024263;28;5104;-65